createdAt,value
2022-08-05T00:06:54.831Z,4.77
2022-08-05T00:17:19.565Z,4.60
2022-08-05T00:27:43.335Z,4.72
2022-08-05T00:38:05.080Z,4.70
2022-08-05T00:48:32.726Z,4.85
2022-08-05T01:09:19.961Z,4.60
2022-08-05T01:20:00.829Z,5.00
2022-08-05T01:30:33.737Z,5.28
2022-08-05T01:40:59.831Z,5.32
2022-08-05T01:51:29.406Z,5.30
2022-08-05T02:01:55.507Z,5.72
2022-08-05T02:12:26.251Z,5.63
2022-08-05T02:22:51.476Z,6.10
2022-08-05T02:33:24.528Z,5.75
2022-08-05T02:44:02.605Z,6.53
2022-08-05T02:54:36.414Z,6.88
2022-08-05T03:05:00.032Z,7.15
2022-08-05T03:15:24.358Z,6.57
2022-08-05T03:26:04.339Z,6.70
2022-08-05T03:36:30.580Z,6.57
2022-08-05T03:46:52.488Z,6.85
2022-08-05T03:57:29.090Z,7.07
2022-08-05T04:08:14.931Z,6.68
2022-08-05T04:18:54.378Z,6.93
2022-08-05T04:29:15.986Z,6.45
2022-08-05T04:39:40.076Z,6.72
2022-08-05T05:00:35.011Z,5.95
2022-08-05T05:10:57.130Z,5.80
2022-08-05T05:21:20.331Z,5.65
2022-08-05T05:31:41.801Z,5.55
2022-08-05T05:42:09.773Z,5.32
2022-08-05T05:52:38.033Z,5.63
2022-08-05T06:03:39.720Z,6.13
2022-08-05T06:13:50.475Z,4.88
2022-08-05T06:24:17.476Z,5.65
2022-08-05T06:34:47.702Z,4.35
2022-08-05T06:45:21.277Z,3.97
2022-08-05T06:55:58.943Z,3.42
2022-08-05T07:06:22.803Z,3.20
2022-08-05T07:18:00.085Z,3.20
2022-08-05T07:27:56.346Z,2.78
2022-08-05T07:38:32.015Z,2.80
2022-08-05T07:49:05.363Z,2.90
2022-08-05T07:59:39.003Z,3.20
2022-08-05T08:10:05.683Z,2.80
2022-08-05T08:20:45.293Z,2.70
2022-08-05T08:31:14.580Z,2.50
2022-08-05T08:41:51.664Z,2.67
2022-08-05T08:52:26.122Z,2.60
2022-08-05T09:02:50.102Z,3.92
2022-08-05T09:13:15.173Z,2.92
2022-08-05T09:23:43.579Z,3.05
2022-08-05T09:34:09.716Z,2.38
2022-08-05T09:44:36.621Z,2.30
2022-08-05T09:55:21.150Z,2.03
2022-08-05T10:05:46.952Z,2.60
2022-08-05T10:16:32.076Z,2.57
2022-08-05T10:26:56.215Z,3.10
2022-08-05T10:37:26.727Z,3.17
2022-08-05T10:48:35.262Z,3.00
2022-08-05T10:59:07.350Z,2.97
2022-08-05T11:09:45.344Z,4.78
2022-08-05T11:20:30.278Z,2.88
2022-08-05T11:42:01.947Z,2.85
2022-08-05T11:52:29.352Z,3.13
2022-08-05T12:02:52.478Z,2.78
2022-08-05T12:13:49.111Z,2.50
2022-08-05T12:24:04.439Z,2.55
2022-08-05T12:34:29.215Z,2.55
2022-08-05T12:44:52.300Z,2.42
2022-08-05T12:55:22.602Z,3.30
2022-08-05T13:05:50.010Z,3.57
2022-08-05T13:16:15.514Z,2.58
2022-08-05T13:26:39.968Z,2.50
2022-08-05T13:37:02.828Z,2.15
2022-08-05T13:47:35.909Z,2.33
2022-08-05T13:58:08.066Z,2.78
2022-08-05T14:08:35.018Z,2.72
2022-08-05T14:18:57.242Z,2.70
2022-08-05T14:29:27.369Z,2.70
2022-08-05T14:39:56.784Z,3.00
2022-08-05T14:50:20.041Z,2.75
2022-08-05T15:00:58.245Z,2.70
2022-08-05T15:11:22.228Z,2.90
2022-08-05T15:22:04.002Z,4.03
2022-08-05T15:32:28.842Z,3.70
2022-08-05T15:42:56.752Z,3.17
2022-08-05T15:53:23.390Z,3.97
2022-08-05T16:03:50.536Z,4.03
2022-08-05T16:14:17.159Z,4.38
2022-08-05T16:24:51.829Z,4.60
2022-08-05T16:35:16.800Z,3.97
2022-08-05T16:46:05.422Z,3.70
2022-08-05T16:56:23.905Z,3.95
2022-08-05T17:06:45.455Z,5.10
2022-08-05T17:17:42.549Z,4.22
2022-08-05T17:28:05.722Z,4.57
2022-08-05T17:38:37.449Z,3.15
2022-08-05T17:49:02.102Z,2.97
2022-08-05T17:59:27.287Z,2.17
2022-08-05T18:09:59.476Z,1.17
2022-08-05T18:20:29.535Z,1.10
2022-08-05T18:30:53.466Z,1.25
2022-08-05T18:41:57.092Z,1.58
2022-08-05T18:52:15.504Z,1.30
2022-08-05T19:02:38.680Z,1.60
2022-08-05T19:13:00.932Z,1.80
2022-08-05T19:24:05.087Z,1.92
2022-08-05T19:34:06.994Z,2.65
2022-08-05T19:44:31.656Z,1.70
2022-08-05T19:54:53.066Z,1.63
2022-08-05T20:05:24.720Z,1.67
2022-08-05T20:15:52.114Z,1.77
2022-08-05T20:26:20.728Z,1.70
2022-08-05T20:36:45.253Z,1.55
2022-08-05T20:47:08.391Z,1.60
2022-08-05T20:57:43.963Z,1.50
2022-08-05T21:08:09.463Z,2.10
2022-08-05T21:18:32.214Z,2.10
2022-08-05T21:29:03.536Z,1.95
2022-08-05T21:39:26.640Z,2.17
2022-08-05T21:50:00.902Z,2.25
2022-08-05T22:00:23.626Z,1.90
2022-08-05T22:10:47.414Z,2.03
2022-08-05T22:21:19.315Z,2.17
2022-08-05T22:31:44.424Z,2.63
2022-08-05T22:42:12.103Z,2.65
2022-08-05T22:52:36.199Z,2.22
2022-08-05T23:02:58.545Z,2.55
2022-08-05T23:13:30.730Z,2.13
2022-08-05T23:23:56.883Z,2.35
2022-08-05T23:34:24.823Z,1.88
2022-08-05T23:44:46.792Z,1.30
2022-08-05T23:55:17.950Z,1.25
